createdAt,value
2024-02-13T00:02:04.113Z,11.40
2024-02-13T00:04:33.631Z,9.50
2024-02-13T00:07:01.031Z,9.90
2024-02-13T00:09:27.983Z,9.10
2024-02-13T00:12:08.414Z,9.20
2024-02-13T00:15:02.367Z,8.60
2024-02-13T00:17:58.655Z,10.40
2024-02-13T00:20:50.504Z,8.50
2024-02-13T00:24:01.452Z,8.80
2024-02-13T00:26:49.300Z,9.50
2024-02-13T00:29:42.266Z,9.90
2024-02-13T00:32:33.420Z,8.50
2024-02-13T00:35:10.048Z,7.50
2024-02-13T00:37:51.622Z,9.90
2024-02-13T00:40:23.531Z,14.20
2024-02-13T00:42:56.264Z,13.80
2024-02-13T00:45:23.484Z,16.10
2024-02-13T00:47:51.433Z,13.10
2024-02-13T00:50:18.827Z,13.30
2024-02-13T00:52:47.851Z,13.40
2024-02-13T00:55:14.943Z,13.40
2024-02-13T00:57:41.752Z,10.40
2024-02-13T01:00:12.983Z,12.20
2024-02-13T01:02:41.435Z,11.20
2024-02-13T01:05:08.962Z,11.30
2024-02-13T01:07:38.241Z,9.70
2024-02-13T01:10:08.156Z,9.50
2024-02-13T01:12:35.637Z,8.50
2024-02-13T01:15:10.265Z,10.20
2024-02-13T01:17:52.711Z,11.50
2024-02-13T01:20:44.704Z,8.60
2024-02-13T01:23:13.636Z,9.60
2024-02-13T01:25:42.010Z,9.20
2024-02-13T01:28:21.926Z,9.50
2024-02-13T01:30:51.251Z,8.30
2024-02-13T01:33:39.776Z,9.70
2024-02-13T01:36:19.138Z,9.50
2024-02-13T01:39:01.327Z,9.20
2024-02-13T01:41:31.286Z,7.90
2024-02-13T01:44:05.696Z,8.10
2024-02-13T01:46:55.546Z,10.40
2024-02-13T01:49:22.988Z,11.60
2024-02-13T01:52:12.041Z,10.70
2024-02-13T01:54:39.007Z,9.20
2024-02-13T01:57:15.188Z,8.30
2024-02-13T02:00:05.036Z,10.30
2024-02-13T02:02:46.831Z,9.90
2024-02-13T02:05:15.408Z,10.90
2024-02-13T02:07:45.139Z,11.90
2024-02-13T02:10:30.506Z,11.20
2024-02-13T02:13:06.329Z,10.00
2024-02-13T02:16:04.545Z,11.30
2024-02-13T02:18:32.167Z,12.30
2024-02-13T02:20:59.921Z,15.30
2024-02-13T02:23:42.254Z,11.40
2024-02-13T02:26:17.960Z,12.80
2024-02-13T02:29:07.311Z,10.30
2024-02-13T02:31:56.322Z,11.60
2024-02-13T02:34:25.356Z,7.80
2024-02-13T02:36:54.715Z,10.70
2024-02-13T02:39:22.455Z,9.80
2024-02-13T02:42:19.174Z,9.90
2024-02-13T02:45:31.075Z,133.20
2024-02-13T02:48:20.197Z,14.80
2024-02-13T02:51:08.012Z,11.20
2024-02-13T02:53:41.066Z,14.90
2024-02-13T02:56:12.454Z,12.80
2024-02-13T02:58:55.840Z,10.40
2024-02-13T03:01:24.175Z,8.80
2024-02-13T03:04:13.264Z,12.80
2024-02-13T03:06:43.090Z,11.10
2024-02-13T03:09:10.070Z,15.30
2024-02-13T03:11:58.178Z,12.20
2024-02-13T03:14:37.358Z,14.60
2024-02-13T03:17:13.332Z,14.10
2024-02-13T03:20:02.489Z,13.10
2024-02-13T03:23:04.424Z,13.20
2024-02-13T03:25:48.467Z,11.50
2024-02-13T03:28:15.361Z,14.80
2024-02-13T03:30:42.397Z,13.40
2024-02-13T03:33:11.520Z,14.70
2024-02-13T03:35:45.287Z,14.00
2024-02-13T03:38:14.507Z,14.30
2024-02-13T03:40:44.958Z,12.60
2024-02-13T03:43:20.451Z,15.70
2024-02-13T03:45:47.425Z,13.60
2024-02-13T03:48:14.722Z,15.10
2024-02-13T03:50:47.412Z,14.10
2024-02-13T03:53:37.075Z,14.10
2024-02-13T03:56:28.770Z,15.40
2024-02-13T03:59:17.545Z,12.30
2024-02-13T04:02:06.247Z,12.90
2024-02-13T04:04:58.713Z,12.50
2024-02-13T04:07:28.465Z,12.50
2024-02-13T04:10:21.046Z,12.30
2024-02-13T04:12:51.917Z,13.80
2024-02-13T04:16:25.021Z,11.00
2024-02-13T04:19:35.137Z,11.40
2024-02-13T04:22:27.103Z,12.60
2024-02-13T04:25:43.545Z,10.10
2024-02-13T04:28:13.324Z,9.90
2024-02-13T04:30:57.909Z,10.70
2024-02-13T04:33:40.143Z,9.10
2024-02-13T04:36:27.332Z,11.90
2024-02-13T04:39:28.137Z,14.20
2024-02-13T04:42:11.636Z,14.30
2024-02-13T04:45:19.042Z,12.30
2024-02-13T04:47:59.412Z,13.90
2024-02-13T04:50:33.947Z,14.70
2024-02-13T04:53:06.128Z,17.90
2024-02-13T04:55:47.726Z,20.30
2024-02-13T04:58:19.414Z,23.30
2024-02-13T05:00:52.944Z,17.40
2024-02-13T05:03:41.081Z,19.20
2024-02-13T05:06:27.441Z,20.40
2024-02-13T05:08:57.409Z,19.70
2024-02-13T05:11:29.487Z,17.90
2024-02-13T05:14:03.997Z,17.20
2024-02-13T05:16:33.013Z,14.30
2024-02-13T05:19:22.441Z,12.70
2024-02-13T05:21:52.125Z,14.00
2024-02-13T05:24:19.311Z,15.60
2024-02-13T05:26:51.960Z,11.10
2024-02-13T05:31:51.726Z,21.50
2024-02-13T05:34:35.247Z,17.20
2024-02-13T05:37:22.656Z,18.10
2024-02-13T05:40:13.142Z,13.80
2024-02-13T05:42:44.369Z,17.30
2024-02-13T05:45:14.985Z,15.00
2024-02-13T05:47:50.379Z,13.90
2024-02-13T05:50:26.767Z,11.20
2024-02-13T05:52:56.246Z,10.30
2024-02-13T05:55:26.130Z,11.40
2024-02-13T05:57:52.944Z,11.10
2024-02-13T06:00:26.130Z,15.80
2024-02-13T06:02:56.604Z,19.40
2024-02-13T06:05:24.682Z,12.60
2024-02-13T06:07:56.132Z,25.20
2024-02-13T06:10:48.389Z,15.30
2024-02-13T06:13:41.590Z,13.40
2024-02-13T06:16:22.578Z,14.50
2024-02-13T06:18:49.823Z,14.60
2024-02-13T06:21:22.541Z,13.70
2024-02-13T06:23:54.391Z,15.80
2024-02-13T06:27:04.909Z,14.50
2024-02-13T06:29:47.529Z,13.90
2024-02-13T06:32:38.217Z,15.30
2024-02-13T06:38:25.078Z,15.40
2024-02-13T06:41:06.984Z,17.30
2024-02-13T06:43:34.997Z,17.10
2024-02-13T06:46:07.716Z,17.30
2024-02-13T06:48:49.015Z,20.10
2024-02-13T06:51:25.918Z,16.40
2024-02-13T06:54:03.955Z,20.20
2024-02-13T06:56:30.792Z,19.70
2024-02-13T06:58:57.787Z,15.70
2024-02-13T07:01:25.853Z,18.60
2024-02-13T07:03:53.026Z,23.90
2024-02-13T07:06:32.999Z,20.30
2024-02-13T07:09:08.800Z,21.40
2024-02-13T07:12:05.487Z,25.30
2024-02-13T07:14:33.254Z,20.10
2024-02-13T07:17:25.461Z,23.50
2024-02-13T07:20:33.009Z,22.90
2024-02-13T07:23:00.223Z,35.20
2024-02-13T07:25:27.215Z,40.50
2024-02-13T07:27:58.923Z,31.40
2024-02-13T07:30:27.636Z,30.70
2024-02-13T07:32:56.098Z,21.90
2024-02-13T07:35:24.570Z,20.40
2024-02-13T07:37:51.728Z,16.00
2024-02-13T07:40:23.902Z,21.00
2024-02-13T07:42:58.475Z,21.40
2024-02-13T07:45:27.891Z,18.00
2024-02-13T07:47:55.369Z,17.60
2024-02-13T07:50:23.336Z,18.30
2024-02-13T07:52:53.581Z,14.10
2024-02-13T07:55:21.214Z,13.00
2024-02-13T07:57:52.141Z,16.60
2024-02-13T08:00:31.032Z,14.10
2024-02-13T08:02:58.735Z,14.60
2024-02-13T08:05:38.487Z,11.40
2024-02-13T08:08:14.584Z,13.30
2024-02-13T08:10:53.224Z,16.70
2024-02-13T08:13:43.597Z,15.80
2024-02-13T08:16:14.640Z,54.40
2024-02-13T08:18:51.943Z,17.40
2024-02-13T08:21:19.541Z,34.30
2024-02-13T08:23:49.411Z,24.70
2024-02-13T08:26:25.651Z,12.10
2024-02-13T08:29:14.395Z,15.30
2024-02-13T08:31:59.166Z,13.80
2024-02-13T08:34:28.486Z,10.40
2024-02-13T08:37:09.902Z,7.50
2024-02-13T08:40:07.421Z,9.80
2024-02-13T08:42:54.392Z,6.10
2024-02-13T08:45:23.140Z,10.30
2024-02-13T08:47:56.655Z,14.70
2024-02-13T08:50:54.456Z,13.40
2024-02-13T08:53:24.922Z,31.40
2024-02-13T08:56:10.114Z,16.20
2024-02-13T08:58:58.075Z,14.70
2024-02-13T09:01:48.964Z,26.30
2024-02-13T09:04:40.976Z,10.50
2024-02-13T09:07:08.378Z,23.90
2024-02-13T09:09:36.077Z,54.20
2024-02-13T09:12:09.726Z,12.20
2024-02-13T09:14:45.126Z,10.50
2024-02-13T09:17:15.550Z,10.80
2024-02-13T09:19:51.636Z,9.50
2024-02-13T09:23:00.933Z,14.10
2024-02-13T09:25:40.399Z,13.40
2024-02-13T09:28:42.469Z,7.40
2024-02-13T09:31:46.345Z,13.00
2024-02-13T09:34:37.156Z,10.20
2024-02-13T09:37:41.577Z,13.10
2024-02-13T09:41:10.413Z,14.20
2024-02-13T09:44:08.440Z,47.00
2024-02-13T09:47:26.471Z,11.60
2024-02-13T09:50:16.580Z,11.60
2024-02-13T09:53:31.002Z,11.10
2024-02-13T09:56:22.233Z,7.40
2024-02-13T09:59:26.318Z,10.70
2024-02-13T10:02:39.853Z,6.60
2024-02-13T10:05:12.030Z,9.90
2024-02-13T10:08:32.727Z,10.90
2024-02-13T10:11:17.730Z,14.40
2024-02-13T10:13:48.534Z,9.50
2024-02-13T10:16:30.215Z,9.30
2024-02-13T10:19:21.454Z,5.40
2024-02-13T10:21:52.833Z,13.90
2024-02-13T10:24:31.814Z,6.50
2024-02-13T10:27:16.066Z,6.40
2024-02-13T10:29:50.130Z,4.80
2024-02-13T10:32:58.834Z,5.50
2024-02-13T10:35:57.552Z,7.90
2024-02-13T10:38:51.428Z,7.40
2024-02-13T10:42:01.457Z,5.80
2024-02-13T10:44:45.214Z,3.60
2024-02-13T10:47:16.770Z,6.20
2024-02-13T10:50:01.702Z,9.90
2024-02-13T10:52:40.197Z,6.90
2024-02-13T10:56:08.844Z,9.10
2024-02-13T10:59:22.890Z,4.40
2024-02-13T11:02:00.657Z,6.50
2024-02-13T11:04:44.803Z,5.10
2024-02-13T11:07:44.490Z,5.60
2024-02-13T11:10:56.213Z,3.90
2024-02-13T11:13:36.584Z,4.80
2024-02-13T11:17:03.802Z,2.60
2024-02-13T11:20:29.689Z,3.80
2024-02-13T11:23:28.838Z,4.40
2024-02-13T11:26:21.803Z,7.80
2024-02-13T11:29:26.911Z,7.40
2024-02-13T11:32:29.679Z,6.30
2024-02-13T11:35:59.473Z,4.70
2024-02-13T11:39:20.978Z,6.20
2024-02-13T11:41:58.833Z,6.00
2024-02-13T11:45:01.469Z,2.60
2024-02-13T11:48:32.542Z,8.80
2024-02-13T11:51:31.550Z,14.60
2024-02-13T11:54:22.459Z,9.10
2024-02-13T11:57:49.160Z,6.30
2024-02-13T12:00:58.508Z,11.20
2024-02-13T12:03:28.701Z,8.30
2024-02-13T12:05:57.766Z,7.20
2024-02-13T12:08:31.656Z,6.60
2024-02-13T12:11:20.077Z,6.00
2024-02-13T12:14:10.567Z,9.10
2024-02-13T12:17:13.887Z,7.20
2024-02-13T12:20:26.500Z,7.30
2024-02-13T12:23:16.208Z,6.70
2024-02-13T12:25:59.569Z,7.70
2024-02-13T12:28:57.191Z,14.90
2024-02-13T12:31:24.692Z,12.80
2024-02-13T12:34:12.008Z,14.00
2024-02-13T12:36:39.948Z,13.60
2024-02-13T12:39:18.268Z,7.50
2024-02-13T12:41:58.954Z,7.60
2024-02-13T12:44:26.501Z,10.20
2024-02-13T12:47:11.995Z,16.40
2024-02-13T12:49:40.471Z,10.30
2024-02-13T12:52:23.805Z,10.70
2024-02-13T12:54:59.928Z,10.80
2024-02-13T12:57:56.187Z,9.00
2024-02-13T13:00:47.109Z,9.10
2024-02-13T13:03:59.349Z,7.00
2024-02-13T13:06:41.534Z,7.00
2024-02-13T13:09:44.199Z,7.00
2024-02-13T13:12:13.752Z,10.20
2024-02-13T13:14:48.120Z,9.40
2024-02-13T13:17:17.524Z,12.20
2024-02-13T13:19:46.120Z,12.60
2024-02-13T13:22:27.644Z,15.10
2024-02-13T13:24:58.387Z,20.10
2024-02-13T13:28:18.858Z,9.30
2024-02-13T13:31:21.502Z,8.70
2024-02-13T13:34:22.608Z,10.50
2024-02-13T13:37:11.895Z,10.10
2024-02-13T13:40:29.103Z,5.40
2024-02-13T13:42:56.284Z,7.50
2024-02-13T13:45:28.623Z,7.50
2024-02-13T13:48:21.510Z,11.90
2024-02-13T13:51:14.878Z,134.80
2024-02-13T13:54:21.933Z,12.10
2024-02-13T13:56:48.962Z,12.20
2024-02-13T13:59:31.589Z,348.10
2024-02-13T14:02:19.464Z,29.10
2024-02-13T14:04:57.667Z,19.90
2024-02-13T14:07:24.689Z,45.50
2024-02-13T14:10:15.121Z,52.80
2024-02-13T14:12:57.369Z,26.90
2024-02-13T14:15:58.867Z,12.70
2024-02-13T14:19:09.139Z,26.00
2024-02-13T14:22:19.606Z,8.40
2024-02-13T14:25:23.899Z,27.10
2024-02-13T14:28:19.693Z,28.10
2024-02-13T14:31:10.586Z,23.90
2024-02-13T14:34:29.938Z,7.50
2024-02-13T14:37:27.130Z,11.60
2024-02-13T14:40:08.526Z,11.60
2024-02-13T14:42:46.471Z,6.80
2024-02-13T14:45:13.818Z,6.60
2024-02-13T14:48:12.699Z,10.40
2024-02-13T14:50:44.750Z,7.60
2024-02-13T14:53:58.459Z,14.30
2024-02-13T14:56:50.002Z,13.10
2024-02-13T14:59:21.982Z,10.30
2024-02-13T15:02:44.167Z,9.10
2024-02-13T15:06:01.547Z,10.00
2024-02-13T15:08:28.659Z,6.10
2024-02-13T15:10:57.637Z,15.40
2024-02-13T15:13:54.848Z,9.40
2024-02-13T15:16:22.070Z,14.40
2024-02-13T15:18:53.594Z,19.50
2024-02-13T15:21:23.649Z,12.90
2024-02-13T15:24:13.517Z,14.20
2024-02-13T15:27:39.984Z,18.50
2024-02-13T15:30:12.435Z,38.10
2024-02-13T15:35:15.489Z,15.30
2024-02-13T15:48:18.600Z,14.20
2024-02-13T15:50:47.488Z,19.40
2024-02-13T15:53:14.343Z,9.80
2024-02-13T15:55:41.105Z,11.60
2024-02-13T15:58:08.405Z,15.40
2024-02-13T16:00:35.227Z,11.30
2024-02-13T16:03:04.258Z,16.60
2024-02-13T16:05:31.722Z,21.40
2024-02-13T16:07:59.690Z,21.10
2024-02-13T16:10:30.655Z,26.40
2024-02-13T16:12:57.482Z,21.60
2024-02-13T16:15:27.733Z,28.10
2024-02-13T16:17:55.286Z,45.80
2024-02-13T16:20:23.498Z,220.60
2024-02-13T16:22:50.444Z,334.20
2024-02-13T16:25:17.760Z,613.50
2024-02-13T16:27:51.207Z,243.30
2024-02-13T16:30:20.018Z,720.60
2024-02-13T16:32:47.349Z,494.70
2024-02-13T16:35:16.137Z,215.20
2024-02-13T16:37:44.876Z,219.60
2024-02-13T16:40:15.070Z,106.80
2024-02-13T16:42:42.089Z,105.90
2024-02-13T16:45:09.849Z,98.80
2024-02-13T16:47:38.991Z,42.20
2024-02-13T16:50:16.119Z,40.40
2024-02-13T16:52:43.595Z,16.30
2024-02-13T16:55:10.657Z,27.80
2024-02-13T16:57:42.330Z,23.40
2024-02-13T17:00:12.082Z,28.90
2024-02-13T17:02:40.475Z,25.60
2024-02-13T17:05:13.747Z,27.70
2024-02-13T17:07:45.057Z,31.00
2024-02-13T17:10:16.559Z,32.40
2024-02-13T17:12:43.570Z,59.30
2024-02-13T17:15:12.993Z,44.30
2024-02-13T17:17:40.815Z,42.80
2024-02-13T17:20:09.716Z,54.30
2024-02-13T17:22:36.500Z,50.20
2024-02-13T17:25:03.490Z,63.90
2024-02-13T17:27:30.592Z,75.30
2024-02-13T17:29:57.774Z,69.80
2024-02-13T17:32:24.766Z,86.40
2024-02-13T17:34:51.577Z,79.80
2024-02-13T17:37:18.409Z,79.10
2024-02-13T17:39:45.202Z,87.80
2024-02-13T17:42:12.060Z,99.80
2024-02-13T17:44:39.479Z,107.00
2024-02-13T17:47:07.772Z,102.40
2024-02-13T17:49:35.954Z,86.90
2024-02-13T17:52:04.087Z,85.10
2024-02-13T17:54:30.782Z,81.90
2024-02-13T17:56:57.642Z,75.60
2024-02-13T17:59:25.225Z,81.60
2024-02-13T18:01:53.751Z,69.00
2024-02-13T18:04:22.093Z,86.50
2024-02-13T18:06:49.555Z,98.90
2024-02-13T18:09:16.428Z,79.70
2024-02-13T18:11:43.751Z,95.70
2024-02-13T18:14:11.453Z,94.70
2024-02-13T18:16:38.419Z,99.90
2024-02-13T18:19:07.334Z,73.50
2024-02-13T18:21:34.405Z,85.70
2024-02-13T18:24:02.669Z,90.50
2024-02-13T18:26:30.306Z,107.50
2024-02-13T18:28:57.208Z,64.80
2024-02-13T18:31:25.372Z,79.00
2024-02-13T18:33:52.452Z,80.70
2024-02-13T18:36:20.153Z,88.80
2024-02-13T18:38:51.944Z,87.20
2024-02-13T18:41:19.291Z,77.50
2024-02-13T18:43:47.485Z,84.10
2024-02-13T18:46:15.440Z,66.80
2024-02-13T18:48:43.065Z,57.00
2024-02-13T18:51:10.841Z,70.40
2024-02-13T18:53:37.820Z,66.20
2024-02-13T18:56:04.856Z,66.90
2024-02-13T18:58:37.211Z,57.90
2024-02-13T19:01:05.018Z,99.00
2024-02-13T19:03:32.462Z,153.90
2024-02-13T19:06:04.853Z,161.50
2024-02-13T19:08:36.608Z,106.50
2024-02-13T19:11:03.680Z,167.70
2024-02-13T19:13:30.376Z,164.30
2024-02-13T19:15:57.260Z,142.50
2024-02-13T19:18:24.659Z,135.60
2024-02-13T19:20:55.653Z,145.30
2024-02-13T19:23:25.106Z,186.10
2024-02-13T19:25:52.480Z,189.10
2024-02-13T19:28:19.581Z,195.10
2024-02-13T19:30:51.887Z,197.00
2024-02-13T19:33:18.900Z,169.10
2024-02-13T19:35:46.606Z,182.50
2024-02-13T19:38:18.284Z,116.10
2024-02-13T19:40:46.346Z,81.10
2024-02-13T19:43:13.262Z,98.60
2024-02-13T19:45:44.185Z,80.70
2024-02-13T19:48:11.551Z,80.70
2024-02-13T19:50:40.106Z,67.10
2024-02-13T19:53:08.724Z,90.30
2024-02-13T19:55:37.603Z,76.10
2024-02-13T19:58:05.163Z,47.10
2024-02-13T20:00:34.501Z,43.90
2024-02-13T20:03:03.083Z,45.40
2024-02-13T20:05:30.152Z,53.80
2024-02-13T20:07:58.678Z,48.30
2024-02-13T20:10:25.518Z,52.00
2024-02-13T20:12:52.372Z,47.60
2024-02-13T20:15:19.275Z,58.00
2024-02-13T20:17:46.509Z,50.70
2024-02-13T20:20:16.699Z,53.20
2024-02-13T20:22:46.732Z,58.50
2024-02-13T20:25:14.555Z,59.40
2024-02-13T20:27:45.385Z,73.90
2024-02-13T20:30:17.134Z,87.20
2024-02-13T20:32:49.064Z,78.60
2024-02-13T20:35:16.421Z,70.80
2024-02-13T20:37:44.023Z,72.80
2024-02-13T20:40:13.292Z,59.30
2024-02-13T20:42:46.994Z,68.50
2024-02-13T20:45:21.346Z,49.50
2024-02-13T20:47:51.322Z,48.70
2024-02-13T20:50:19.128Z,57.60
2024-02-13T20:52:45.866Z,50.20
2024-02-13T20:55:14.935Z,56.90
2024-02-13T20:57:44.368Z,63.00
2024-02-13T21:00:15.248Z,50.40
2024-02-13T21:02:43.529Z,44.90
2024-02-13T21:05:13.854Z,46.70
2024-02-13T21:07:40.804Z,45.40
2024-02-13T21:10:10.345Z,45.80
2024-02-13T21:12:37.269Z,47.10
2024-02-13T21:15:04.410Z,50.20
2024-02-13T21:17:32.088Z,41.90
2024-02-13T21:20:01.507Z,40.50
2024-02-13T21:22:47.149Z,42.90
2024-02-13T21:27:46.805Z,37.60
2024-02-13T21:30:13.770Z,38.10
2024-02-13T21:32:40.665Z,33.60
2024-02-13T21:35:12.155Z,34.40
2024-02-13T21:37:40.605Z,34.80
2024-02-13T21:40:15.341Z,31.40
2024-02-13T21:42:42.948Z,27.80
2024-02-13T21:45:10.320Z,32.90
2024-02-13T21:47:42.593Z,30.60
2024-02-13T21:50:10.671Z,26.40
2024-02-13T21:52:38.107Z,21.30
2024-02-13T21:55:06.466Z,24.20
2024-02-13T21:57:33.468Z,23.00
2024-02-13T22:00:04.628Z,20.00
2024-02-13T22:02:31.708Z,22.00
2024-02-13T22:04:58.470Z,20.10
2024-02-13T22:07:25.291Z,20.70
2024-02-13T22:09:52.072Z,21.30
2024-02-13T22:12:18.829Z,17.00
2024-02-13T22:14:45.613Z,16.30
2024-02-13T22:17:12.343Z,19.20
2024-02-13T22:19:39.195Z,15.60
2024-02-13T22:22:06.312Z,14.90
2024-02-13T22:24:33.652Z,12.40
2024-02-13T22:27:00.456Z,10.80
2024-02-13T22:29:27.296Z,10.60
2024-02-13T22:31:53.982Z,11.00
2024-02-13T22:34:24.772Z,12.50
2024-02-13T22:36:53.720Z,11.30
2024-02-13T22:39:20.418Z,12.20
2024-02-13T22:41:47.166Z,14.50
2024-02-13T22:44:14.423Z,13.00
2024-02-13T22:46:42.217Z,13.50
2024-02-13T22:49:09.127Z,11.80
2024-02-13T22:51:36.069Z,11.10
2024-02-13T22:54:02.895Z,8.80
2024-02-13T22:56:29.689Z,10.40
2024-02-13T22:58:56.710Z,11.30
2024-02-13T23:01:25.261Z,11.10
2024-02-13T23:03:52.363Z,14.10
2024-02-13T23:06:20.658Z,11.20
2024-02-13T23:08:47.612Z,11.70
2024-02-13T23:11:14.510Z,13.10
2024-02-13T23:13:45.718Z,10.60
2024-02-13T23:16:16.210Z,11.60
2024-02-13T23:18:43.210Z,11.40
2024-02-13T23:21:10.424Z,14.10
2024-02-13T23:23:37.217Z,13.50
2024-02-13T23:26:04.162Z,13.20
2024-02-13T23:28:38.874Z,15.60
2024-02-13T23:31:13.308Z,12.10
2024-02-13T23:33:40.609Z,12.40
2024-02-13T23:36:10.356Z,11.90
2024-02-13T23:38:37.366Z,11.10
2024-02-13T23:41:05.220Z,10.70
2024-02-13T23:43:31.979Z,10.40
2024-02-13T23:45:58.774Z,12.00
2024-02-13T23:48:25.684Z,11.50
2024-02-13T23:50:52.625Z,11.50
2024-02-13T23:53:19.469Z,9.80
2024-02-13T23:55:48.644Z,11.00
2024-02-13T23:58:17.583Z,12.40
